sensor_id;sensor_type;location;lat;lon;timestamp;temperature;humidity
72919;SHT30;68407;55.694;26.994;2024-02-21T00:00:09;0.6;86.3
72919;SHT30;68407;55.694;26.994;2024-02-21T00:05:08;0.6;86.3
72919;SHT30;68407;55.694;26.994;2024-02-21T00:09:54;0.6;86.3
72919;SHT30;68407;55.694;26.994;2024-02-21T00:15:09;0.6;86.2
72919;SHT30;68407;55.694;26.994;2024-02-21T00:19:16;0.6;86.2
72919;SHT30;68407;55.694;26.994;2024-02-21T00:24:16;0.6;86.2
72919;SHT30;68407;55.694;26.994;2024-02-21T00:29:32;0.5;86.3
72919;SHT30;68407;55.694;26.994;2024-02-21T00:34:28;0.5;86.4
72919;SHT30;68407;55.694;26.994;2024-02-21T00:39:42;0.4;86.6
72919;SHT30;68407;55.694;26.994;2024-02-21T00:44:38;0.3;86.9
72919;SHT30;68407;55.694;26.994;2024-02-21T00:49:24;0.2;87.1
72919;SHT30;68407;55.694;26.994;2024-02-21T00:55:07;0.1;87.6
72919;SHT30;68407;55.694;26.994;2024-02-21T00:59:52;0.1;87.6
72919;SHT30;68407;55.694;26.994;2024-02-21T01:04:24;0;87.7
72919;SHT30;68407;55.694;26.994;2024-02-21T01:09:16;0;87.8
72919;SHT30;68407;55.694;26.994;2024-02-21T01:14:46;0;87.8
72919;SHT30;68407;55.694;26.994;2024-02-21T01:19:56;0;87.9
72919;SHT30;68407;55.694;26.994;2024-02-21T01:24:25;0;87.9
72919;SHT30;68407;55.694;26.994;2024-02-21T01:29:56;0;87.8
72919;SHT30;68407;55.694;26.994;2024-02-21T01:34:18;-0.1;87.8
72919;SHT30;68407;55.694;26.994;2024-02-21T01:40:09;-0.1;87.9
72919;SHT30;68407;55.694;26.994;2024-02-21T01:44:55;-0.1;87.9
72919;SHT30;68407;55.694;26.994;2024-02-21T01:50:09;0;87.6
72919;SHT30;68407;55.694;26.994;2024-02-21T01:54:24;0;87.6
72919;SHT30;68407;55.694;26.994;2024-02-21T01:59:18;0;87.6
72919;SHT30;68407;55.694;26.994;2024-02-21T02:04:24;0;87.5
72919;SHT30;68407;55.694;26.994;2024-02-21T02:09:37;-0.1;87.7
72919;SHT30;68407;55.694;26.994;2024-02-21T02:14:16;0;87.7
72919;SHT30;68407;55.694;26.994;2024-02-21T02:19:46;0.1;87.6
72919;SHT30;68407;55.694;26.994;2024-02-21T02:24:16;0.1;87.5
72919;SHT30;68407;55.694;26.994;2024-02-21T02:30:07;0.1;87.4
72919;SHT30;68407;55.694;26.994;2024-02-21T02:34:52;0.1;87.4
72919;SHT30;68407;55.694;26.994;2024-02-21T02:39:33;0.1;87.4
72919;SHT30;68407;55.694;26.994;2024-02-21T02:44:44;0.1;87.5
72919;SHT30;68407;55.694;26.994;2024-02-21T02:49:47;0.1;87.5
72919;SHT30;68407;55.694;26.994;2024-02-21T02:55:09;0.1;87.3
72919;SHT30;68407;55.694;26.994;2024-02-21T02:59:37;0.1;87.3
72919;SHT30;68407;55.694;26.994;2024-02-21T03:05:03;0.1;87.6
72919;SHT30;68407;55.694;26.994;2024-02-21T03:09:27;0.1;87.6
72919;SHT30;68407;55.694;26.994;2024-02-21T03:15:07;0.2;87.4
72919;SHT30;68407;55.694;26.994;2024-02-21T03:19:57;0.2;87.4
72919;SHT30;68407;55.694;26.994;2024-02-21T03:24:57;0.2;87.5
72919;SHT30;68407;55.694;26.994;2024-02-21T03:29:43;0.2;87.4
72919;SHT30;68407;55.694;26.994;2024-02-21T03:34:17;0.1;87.4
72919;SHT30;68407;55.694;26.994;2024-02-21T03:39:43;0;87.7
72919;SHT30;68407;55.694;26.994;2024-02-21T03:44:17;0.1;87.8
72919;SHT30;68407;55.694;26.994;2024-02-21T03:49:47;0.2;87.6
72919;SHT30;68407;55.694;26.994;2024-02-21T03:54:47;0.2;87.5
72919;SHT30;68407;55.694;26.994;2024-02-21T03:59:55;0.2;87.5
72919;SHT30;68407;55.694;26.994;2024-02-21T04:05:07;0.1;87.7
72919;SHT30;68407;55.694;26.994;2024-02-21T04:10:07;0.1;87.8
72919;SHT30;68407;55.694;26.994;2024-02-21T04:14:25;0.1;87.8
72919;SHT30;68407;55.694;26.994;2024-02-21T04:19:49;0.2;87.8
72919;SHT30;68407;55.694;26.994;2024-02-21T04:25:07;0.3;87.5
72919;SHT30;68407;55.694;26.994;2024-02-21T04:29:57;0.3;87.5
72919;SHT30;68407;55.694;26.994;2024-02-21T04:34:25;0.3;87.5
72919;SHT30;68407;55.694;26.994;2024-02-21T04:39:19;0.4;87.4
72919;SHT30;68407;55.694;26.994;2024-02-21T04:44:29;0.4;87.2
72919;SHT30;68407;55.694;26.994;2024-02-21T04:50:07;0.4;87
72919;SHT30;68407;55.694;26.994;2024-02-21T04:54:35;0.4;87
72919;SHT30;68407;55.694;26.994;2024-02-21T05:00:07;0.4;87.1
72919;SHT30;68407;55.694;26.994;2024-02-21T05:04:25;0.4;87.1
72919;SHT30;68407;55.694;26.994;2024-02-21T05:09:35;0.3;87.2
72919;SHT30;68407;55.694;26.994;2024-02-21T05:14:49;0.2;87.4
72919;SHT30;68407;55.694;26.994;2024-02-21T05:19:33;0.3;87.5
72919;SHT30;68407;55.694;26.994;2024-02-21T05:24:41;0.3;87.4
72919;SHT30;68407;55.694;26.994;2024-02-21T05:29:51;0.2;87.2
72919;SHT30;68407;55.694;26.994;2024-02-21T05:34:23;0.2;87.2
72919;SHT30;68407;55.694;26.994;2024-02-21T05:39:43;0.2;87.1
72919;SHT30;68407;55.694;26.994;2024-02-21T05:45:07;0.2;86.6
72919;SHT30;68407;55.694;26.994;2024-02-21T05:49:53;0.2;86.6
72919;SHT30;68407;55.694;26.994;2024-02-21T05:54:53;0.2;86.6
72919;SHT30;68407;55.694;26.994;2024-02-21T05:59:51;0.3;86.6
72919;SHT30;68407;55.694;26.994;2024-02-21T06:04:55;0.2;86.5
72919;SHT30;68407;55.694;26.994;2024-02-21T06:09:43;0.3;86.3
72919;SHT30;68407;55.694;26.994;2024-02-21T06:14:53;0.3;86.1
72919;SHT30;68407;55.694;26.994;2024-02-21T06:20:05;0.2;85.9
72919;SHT30;68407;55.694;26.994;2024-02-21T06:25:06;0.2;85.9
72919;SHT30;68407;55.694;26.994;2024-02-21T06:29:41;0.2;85.9
72919;SHT30;68407;55.694;26.994;2024-02-21T06:35:05;0.1;85.8
72919;SHT30;68407;55.694;26.994;2024-02-21T06:39:41;0.1;85.8
72919;SHT30;68407;55.694;26.994;2024-02-21T06:44:51;0.3;85.8
72919;SHT30;68407;55.694;26.994;2024-02-21T06:49:17;0.5;85.2
72919;SHT30;68407;55.694;26.994;2024-02-21T06:54:17;0.7;84.8
72919;SHT30;68407;55.694;26.994;2024-02-21T06:59:17;0.8;84.4
72919;SHT30;68407;55.694;26.994;2024-02-21T07:04:25;0.9;83.9
72919;SHT30;68407;55.694;26.994;2024-02-21T07:09:25;1;83.6
72919;SHT30;68407;55.694;26.994;2024-02-21T07:14:25;0.8;83.9
72919;SHT30;68407;55.694;26.994;2024-02-21T07:20:07;0.6;84.8
72919;SHT30;68407;55.694;26.994;2024-02-21T07:24:51;0.6;84.8
72919;SHT30;68407;55.694;26.994;2024-02-21T07:30:07;1.4;83.6
72919;SHT30;68407;55.694;26.994;2024-02-21T07:34:53;1.4;83.6
72919;SHT30;68407;55.694;26.994;2024-02-21T07:39:55;1.5;82.7
72919;SHT30;68407;55.694;26.994;2024-02-21T07:44:29;1.9;82.1
72919;SHT30;68407;55.694;26.994;2024-02-21T07:49:19;2.2;81.2
72919;SHT30;68407;55.694;26.994;2024-02-21T07:55:07;2.4;79.7
72919;SHT30;68407;55.694;26.994;2024-02-21T08:00:07;2.4;79
72919;SHT30;68407;55.694;26.994;2024-02-21T08:04:33;2.4;79
72919;SHT30;68407;55.694;26.994;2024-02-21T08:10:07;2.7;78.5
72919;SHT30;68407;55.694;26.994;2024-02-21T08:14:55;2.7;78.5
72919;SHT30;68407;55.694;26.994;2024-02-21T08:19:53;2.9;78
72919;SHT30;68407;55.694;26.994;2024-02-21T08:24:59;3;77.8
72919;SHT30;68407;55.694;26.994;2024-02-21T08:29:35;3;77.8
72919;SHT30;68407;55.694;26.994;2024-02-21T08:34:29;3.2;77.5
72919;SHT30;68407;55.694;26.994;2024-02-21T08:39:31;3.2;77.8
72919;SHT30;68407;55.694;26.994;2024-02-21T08:44:29;3.3;77.7
72919;SHT30;68407;55.694;26.994;2024-02-21T08:49:17;3.3;77.5
72919;SHT30;68407;55.694;26.994;2024-02-21T08:54:47;3.3;77.7
72919;SHT30;68407;55.694;26.994;2024-02-21T08:59:35;3.3;77.5
72919;SHT30;68407;55.694;26.994;2024-02-21T09:05:07;3.2;78
72919;SHT30;68407;55.694;26.994;2024-02-21T09:10:03;3.3;77.9
72919;SHT30;68407;55.694;26.994;2024-02-21T09:14:33;3.3;77.9
72919;SHT30;68407;55.694;26.994;2024-02-21T09:19:35;3.4;77.6
72919;SHT30;68407;55.694;26.994;2024-02-21T09:24:55;3.5;77.4
72919;SHT30;68407;55.694;26.994;2024-02-21T09:29:19;3.5;77.3
72919;SHT30;68407;55.694;26.994;2024-02-21T09:34:37;3.5;77.3
72919;SHT30;68407;55.694;26.994;2024-02-21T09:40:07;3.6;77.1
72919;SHT30;68407;55.694;26.994;2024-02-21T09:44:45;3.6;77.1
72919;SHT30;68407;55.694;26.994;2024-02-21T09:49:55;3.4;77.4
72919;SHT30;68407;55.694;26.994;2024-02-21T09:54:25;3.3;77.9
72919;SHT30;68407;55.694;26.994;2024-02-21T09:59:55;3.3;78.1
72919;SHT30;68407;55.694;26.994;2024-02-21T10:04:33;3.2;78.4
72919;SHT30;68407;55.694;26.994;2024-02-21T10:09:29;3.2;78.7
72919;SHT30;68407;55.694;26.994;2024-02-21T10:14:59;3.2;78.8
72919;SHT30;68407;55.694;26.994;2024-02-21T10:19:37;3.3;78.7
72919;SHT30;68407;55.694;26.994;2024-02-21T10:24:39;3.2;79
72919;SHT30;68407;55.694;26.994;2024-02-21T10:29:17;3.2;79.1
72919;SHT30;68407;55.694;26.994;2024-02-21T10:34:27;3.2;79
72919;SHT30;68407;55.694;26.994;2024-02-21T10:40:07;3.1;79.4
72919;SHT30;68407;55.694;26.994;2024-02-21T10:45:07;3.1;79.3
72919;SHT30;68407;55.694;26.994;2024-02-21T10:50:07;3.3;79.3
72919;SHT30;68407;55.694;26.994;2024-02-21T10:55:03;3.3;79.1
72919;SHT30;68407;55.694;26.994;2024-02-21T11:00:07;3.2;79.2
72919;SHT30;68407;55.694;26.994;2024-02-21T11:04:57;3.2;79.2
72919;SHT30;68407;55.694;26.994;2024-02-21T11:09:37;3;79.7
72919;SHT30;68407;55.694;26.994;2024-02-21T11:15:07;3.1;80.3
72919;SHT30;68407;55.694;26.994;2024-02-21T11:19:29;3.1;80.3
72919;SHT30;68407;55.694;26.994;2024-02-21T11:25:07;3.2;79.9
72919;SHT30;68407;55.694;26.994;2024-02-21T11:29:25;3.2;79.9
72919;SHT30;68407;55.694;26.994;2024-02-21T11:34:57;3.1;80.2
72919;SHT30;68407;55.694;26.994;2024-02-21T11:39:20;3;80.4
72919;SHT30;68407;55.694;26.994;2024-02-21T11:44:17;3.1;80.5
72919;SHT30;68407;55.694;26.994;2024-02-21T11:49:51;3.1;80.5
72919;SHT30;68407;55.694;26.994;2024-02-21T11:54:35;3.3;80.2
72919;SHT30;68407;55.694;26.994;2024-02-21T12:00:11;3.4;80
72919;SHT30;68407;55.694;26.994;2024-02-21T12:04:25;3.4;80
72919;SHT30;68407;55.694;26.994;2024-02-21T12:09:58;3.4;79.9
72919;SHT30;68407;55.694;26.994;2024-02-21T12:15:07;3.2;80.6
72919;SHT30;68407;55.694;26.994;2024-02-21T12:20:07;3.3;80.6
72919;SHT30;68407;55.694;26.994;2024-02-21T12:24:37;3.3;80.6
72919;SHT30;68407;55.694;26.994;2024-02-21T12:29:47;3.4;80.4
72919;SHT30;68407;55.694;26.994;2024-02-21T12:35:05;3.6;80.4
72919;SHT30;68407;55.694;26.994;2024-02-21T12:39:55;3.6;80.4
72919;SHT30;68407;55.694;26.994;2024-02-21T12:44:47;3.5;80.4
72919;SHT30;68407;55.694;26.994;2024-02-21T12:49:47;3.5;80.7
72919;SHT30;68407;55.694;26.994;2024-02-21T12:54:37;3.4;81
72919;SHT30;68407;55.694;26.994;2024-02-21T13:00:07;3.3;81.6
72919;SHT30;68407;55.694;26.994;2024-02-21T13:04:45;3.3;81.6
72919;SHT30;68407;55.694;26.994;2024-02-21T13:10:07;3.2;82.4
72919;SHT30;68407;55.694;26.994;2024-02-21T13:14:53;3.2;82.4
72919;SHT30;68407;55.694;26.994;2024-02-21T13:19:37;3.1;82.8
72919;SHT30;68407;55.694;26.994;2024-02-21T13:24:17;3;83.3
72919;SHT30;68407;55.694;26.994;2024-02-21T13:29:17;3;83.5
72919;SHT30;68407;55.694;26.994;2024-02-21T13:34:17;3;83.8
72919;SHT30;68407;55.694;26.994;2024-02-21T13:39:17;3;83.8
72919;SHT30;68407;55.694;26.994;2024-02-21T13:44:17;2.9;84.2
72919;SHT30;68407;55.694;26.994;2024-02-21T13:49:53;3;84.2
72919;SHT30;68407;55.694;26.994;2024-02-21T13:54:59;3.1;84.1
72919;SHT30;68407;55.694;26.994;2024-02-21T13:59:33;3.2;84
72919;SHT30;68407;55.694;26.994;2024-02-21T14:05:09;3.3;84.3
72919;SHT30;68407;55.694;26.994;2024-02-21T14:09:55;3.3;84.3
72919;SHT30;68407;55.694;26.994;2024-02-21T14:15:09;3.7;83.5
72919;SHT30;68407;55.694;26.994;2024-02-21T14:19:29;3.7;83.5
72919;SHT30;68407;55.694;26.994;2024-02-21T14:24:57;3.7;83.6
72919;SHT30;68407;55.694;26.994;2024-02-21T14:30:09;3.6;83.8
72919;SHT30;68407;55.694;26.994;2024-02-21T14:35:09;3.6;83.8
72919;SHT30;68407;55.694;26.994;2024-02-21T14:39:17;3.6;83.8
72919;SHT30;68407;55.694;26.994;2024-02-21T14:44:53;3.4;84.1
72919;SHT30;68407;55.694;26.994;2024-02-21T14:50:07;3.1;84.9
72919;SHT30;68407;55.694;26.994;2024-02-21T14:54:35;3.1;84.9
72919;SHT30;68407;55.694;26.994;2024-02-21T15:00:07;2.9;85.6
72919;SHT30;68407;55.694;26.994;2024-02-21T15:04:17;2.9;85.6
72919;SHT30;68407;55.694;26.994;2024-02-21T15:09:29;2.8;85.8
72919;SHT30;68407;55.694;26.994;2024-02-21T15:14:25;2.8;86.1
72919;SHT30;68407;55.694;26.994;2024-02-21T15:19:27;2.7;86.2
72919;SHT30;68407;55.694;26.994;2024-02-21T15:24:29;2.6;86.6
72919;SHT30;68407;55.694;26.994;2024-02-21T15:29:37;2.5;86.9
72919;SHT30;68407;55.694;26.994;2024-02-21T15:34:39;2.5;87
72919;SHT30;68407;55.694;26.994;2024-02-21T15:40:07;2.4;87.5
72919;SHT30;68407;55.694;26.994;2024-02-21T15:44:21;2.4;87.5
72919;SHT30;68407;55.694;26.994;2024-02-21T15:49:17;2.4;87.4
72919;SHT30;68407;55.694;26.994;2024-02-21T15:54:25;2.4;87.5
72919;SHT30;68407;55.694;26.994;2024-02-21T15:59:47;2.4;87.3
72919;SHT30;68407;55.694;26.994;2024-02-21T16:04:57;2.4;87.3
72919;SHT30;68407;55.694;26.994;2024-02-21T16:09:27;2.4;87.3
72919;SHT30;68407;55.694;26.994;2024-02-21T16:14:45;2.4;87.2
72919;SHT30;68407;55.694;26.994;2024-02-21T16:19:19;2.4;87.3
72919;SHT30;68407;55.694;26.994;2024-02-21T16:25:09;2.2;87.6
72919;SHT30;68407;55.694;26.994;2024-02-21T16:29:17;2.2;87.6
72919;SHT30;68407;55.694;26.994;2024-02-21T16:35:09;2.3;87.5
72919;SHT30;68407;55.694;26.994;2024-02-21T16:39:17;2.3;87.5
72919;SHT30;68407;55.694;26.994;2024-02-21T16:44:31;2.2;87.4
72919;SHT30;68407;55.694;26.994;2024-02-21T16:49:17;2.3;87.4
72919;SHT30;68407;55.694;26.994;2024-02-21T16:54:49;2.3;87.2
72919;SHT30;68407;55.694;26.994;2024-02-21T16:59:25;2.3;87.2
72919;SHT30;68407;55.694;26.994;2024-02-21T17:04:49;2.3;87.2
72919;SHT30;68407;55.694;26.994;2024-02-21T17:09:33;2.3;87.3
72919;SHT30;68407;55.694;26.994;2024-02-21T17:14:55;2.3;87.4
72919;SHT30;68407;55.694;26.994;2024-02-21T17:19:53;2.3;87.4
72919;SHT30;68407;55.694;26.994;2024-02-21T17:24:37;2.3;87.4
72919;SHT30;68407;55.694;26.994;2024-02-21T17:29:25;2.3;87.6
72919;SHT30;68407;55.694;26.994;2024-02-21T17:34:49;2.3;87.7
72919;SHT30;68407;55.694;26.994;2024-02-21T17:39:59;2.3;87.9
72919;SHT30;68407;55.694;26.994;2024-02-21T17:44:39;2.3;88
72919;SHT30;68407;55.694;26.994;2024-02-21T17:49:59;2.3;88.1
72919;SHT30;68407;55.694;26.994;2024-02-21T17:54:53;2.3;88.1
72919;SHT30;68407;55.694;26.994;2024-02-21T18:00:10;2.3;88.2
72919;SHT30;68407;55.694;26.994;2024-02-21T18:04:43;2.3;88.2
72919;SHT30;68407;55.694;26.994;2024-02-21T18:09:59;2.3;88.2
72919;SHT30;68407;55.694;26.994;2024-02-21T18:14:43;2.3;88.2
72919;SHT30;68407;55.694;26.994;2024-02-21T18:19:39;2.2;88.3
72919;SHT30;68407;55.694;26.994;2024-02-21T18:24:43;2.3;88.3
72919;SHT30;68407;55.694;26.994;2024-02-21T18:29:31;2.3;88.3
72919;SHT30;68407;55.694;26.994;2024-02-21T18:35:09;2.2;88.4
72919;SHT30;68407;55.694;26.994;2024-02-21T18:39:49;2.2;88.4
72919;SHT30;68407;55.694;26.994;2024-02-21T18:44:53;2.3;88.3
72919;SHT30;68407;55.694;26.994;2024-02-21T18:50:09;2.3;88.1
72919;SHT30;68407;55.694;26.994;2024-02-21T18:55:11;2.3;88.1
72919;SHT30;68407;55.694;26.994;2024-02-21T18:59:17;2.3;88.1
72919;SHT30;68407;55.694;26.994;2024-02-21T19:04:39;2.3;88.1
72919;SHT30;68407;55.694;26.994;2024-02-21T19:10:09;2.3;88
72919;SHT30;68407;55.694;26.994;2024-02-21T19:14:25;2.3;88
72919;SHT30;68407;55.694;26.994;2024-02-21T19:19:17;2.3;87.9
72919;SHT30;68407;55.694;26.994;2024-02-21T19:24:51;2.3;87.9
72919;SHT30;68407;55.694;26.994;2024-02-21T19:29:39;2.3;88
72919;SHT30;68407;55.694;26.994;2024-02-21T19:35:09;2.3;88
72919;SHT30;68407;55.694;26.994;2024-02-21T19:39:43;2.3;88
72919;SHT30;68407;55.694;26.994;2024-02-21T19:44:55;2.3;88.1
72919;SHT30;68407;55.694;26.994;2024-02-21T19:49:43;2.3;88.1
72919;SHT30;68407;55.694;26.994;2024-02-21T19:54:53;2.3;88.1
72919;SHT30;68407;55.694;26.994;2024-02-21T19:59:25;2.3;88.1
72919;SHT30;68407;55.694;26.994;2024-02-21T20:04:33;2.3;88.2
72919;SHT30;68407;55.694;26.994;2024-02-21T20:09:25;2.2;88.2
72919;SHT30;68407;55.694;26.994;2024-02-21T20:14:17;2.2;88.4
72919;SHT30;68407;55.694;26.994;2024-02-21T20:19:25;2.2;88.6
72919;SHT30;68407;55.694;26.994;2024-02-21T20:24:33;2.1;88.7
72919;SHT30;68407;55.694;26.994;2024-02-21T20:30:09;2.1;88.8
72919;SHT30;68407;55.694;26.994;2024-02-21T20:34:25;2.1;88.8
72919;SHT30;68407;55.694;26.994;2024-02-21T20:40:09;2.1;88.9
72919;SHT30;68407;55.694;26.994;2024-02-21T20:44:39;2.1;88.9
72919;SHT30;68407;55.694;26.994;2024-02-21T20:49:59;2.1;89
72919;SHT30;68407;55.694;26.994;2024-02-21T20:54:17;2.1;89.2
72919;SHT30;68407;55.694;26.994;2024-02-21T20:59:33;2.1;89.2
72919;SHT30;68407;55.694;26.994;2024-02-21T21:05:07;2.1;89.2
72919;SHT30;68407;55.694;26.994;2024-02-21T21:09:49;2.1;89.2
72919;SHT30;68407;55.694;26.994;2024-02-21T21:14:41;2.1;89.3
72919;SHT30;68407;55.694;26.994;2024-02-21T21:20:08;2.1;89.3
72919;SHT30;68407;55.694;26.994;2024-02-21T21:24:17;2.1;89.3
72919;SHT30;68407;55.694;26.994;2024-02-21T21:29:51;2.1;89.4
72919;SHT30;68407;55.694;26.994;2024-02-21T21:34:33;2.1;89.5
72919;SHT30;68407;55.694;26.994;2024-02-21T21:39:23;2.1;89.4
72919;SHT30;68407;55.694;26.994;2024-02-21T21:44:17;2.1;89.4
72919;SHT30;68407;55.694;26.994;2024-02-21T21:49:27;2.1;89.6
72919;SHT30;68407;55.694;26.994;2024-02-21T21:54:57;2.1;89.7
72919;SHT30;68407;55.694;26.994;2024-02-21T21:59:17;2.1;89.7
72919;SHT30;68407;55.694;26.994;2024-02-21T22:05:07;2.1;89.9
72919;SHT30;68407;55.694;26.994;2024-02-21T22:09:17;2.1;89.9
72919;SHT30;68407;55.694;26.994;2024-02-21T22:15:07;2.2;89.8
72919;SHT30;68407;55.694;26.994;2024-02-21T22:19:43;2.2;89.8
72919;SHT30;68407;55.694;26.994;2024-02-21T22:24:57;2.2;89.8
72919;SHT30;68407;55.694;26.994;2024-02-21T22:29:17;2.2;89.8
72919;SHT30;68407;55.694;26.994;2024-02-21T22:34:49;2.2;89.7
72919;SHT30;68407;55.694;26.994;2024-02-21T22:40:09;2.2;89.9
72919;SHT30;68407;55.694;26.994;2024-02-21T22:45:09;2.1;89.9
72919;SHT30;68407;55.694;26.994;2024-02-21T22:49:25;2.1;89.9
72919;SHT30;68407;55.694;26.994;2024-02-21T22:55:09;2.1;90
72919;SHT30;68407;55.694;26.994;2024-02-21T23:00:09;2.1;90
72919;SHT30;68407;55.694;26.994;2024-02-21T23:04:55;2.1;90
72919;SHT30;68407;55.694;26.994;2024-02-21T23:10:11;2.1;90
72919;SHT30;68407;55.694;26.994;2024-02-21T23:14:25;2.1;90
72919;SHT30;68407;55.694;26.994;2024-02-21T23:19:17;2.1;90.1
72919;SHT30;68407;55.694;26.994;2024-02-21T23:24:25;2.1;90.1
72919;SHT30;68407;55.694;26.994;2024-02-21T23:29:39;2.1;90.1
72919;SHT30;68407;55.694;26.994;2024-02-21T23:34:17;2.1;90
72919;SHT30;68407;55.694;26.994;2024-02-21T23:39:49;2.1;90.1
72919;SHT30;68407;55.694;26.994;2024-02-21T23:44:35;2.2;90
72919;SHT30;68407;55.694;26.994;2024-02-21T23:50:11;2.3;90
72919;SHT30;68407;55.694;26.994;2024-02-21T23:54:55;2.3;90
72919;SHT30;68407;55.694;26.994;2024-02-21T23:59:25;2.2;89.9
